Time;durP1;ratioP1;P1;durP2;ratioP2;P2;SDS_P1;SDS_P2;PMS_P1;PMS_P2;Temp;Humidity;BMP_temperature;BMP_pressure;BME280_temperature;BME280_humidity;BME280_pressure;Samples;Min_cycle;Max_cycle;Signal;HPM_P1;HPM_P2
2022/08/25 00:01:13;;;;;;;7.22;3.88;;;23.00;76.70;;;;;;4972511;28;20027;-78
2022/08/25 00:03:40;;;;;;;12.13;4.45;;;22.90;76.80;;;;;;4971993;28;20109;-80
2022/08/25 00:06:06;;;;;;;9.88;3.78;;;22.90;77.50;;;;;;4971948;28;20108;-79
2022/08/25 00:08:33;;;;;;;17.75;8.48;;;22.80;77.50;;;;;;4972254;28;20037;-76
2022/08/25 00:11:00;;;;;;;41.45;25.67;;;22.80;77.50;;;;;;4972851;28;20053;-79
2022/08/25 00:13:28;;;;;;;9.33;5.13;;;22.80;78.20;;;;;;4971997;28;20409;-77
2022/08/25 00:15:54;;;;;;;10.27;3.97;;;22.80;78.40;;;;;;4971874;28;20122;-78
2022/08/25 00:18:20;;;;;;;7.18;4.18;;;22.70;79.50;;;;;;4971836;28;20081;-76
2022/08/25 00:20:47;;;;;;;9.82;3.80;;;22.60;79.90;;;;;;4971817;28;20035;-78
2022/08/25 00:23:13;;;;;;;5.85;3.72;;;22.60;80.60;;;;;;4972535;28;20015;-77
2022/08/25 00:25:39;;;;;;;7.95;4.00;;;22.60;81.00;;;;;;4971966;28;20126;-76
2022/08/25 00:28:05;;;;;;;10.30;4.05;;;22.60;81.20;;;;;;4972010;28;20041;-77
2022/08/25 00:30:30;;;;;;;6.78;3.92;;;22.60;81.70;;;;;;4971842;28;20035;-79
2022/08/25 00:32:56;;;;;;;8.55;4.50;;;22.50;82.10;;;;;;4971737;28;20086;-76
2022/08/25 00:35:23;;;;;;;12.57;4.10;;;22.50;82.30;;;;;;4971943;28;20062;-76
2022/08/25 00:37:49;;;;;;;10.15;4.35;;;22.40;83.00;;;;;;4972474;28;20019;-78
2022/08/25 00:40:14;;;;;;;12.23;4.97;;;22.30;83.60;;;;;;4970841;28;20027;-77
2022/08/25 00:42:40;;;;;;;7.78;4.65;;;22.30;84.20;;;;;;4972001;28;20457;-78
2022/08/25 00:45:08;;;;;;;8.85;4.25;;;22.20;85.50;;;;;;4971790;28;20469;-77
2022/08/25 00:47:34;;;;;;;8.70;3.97;;;22.30;84.60;;;;;;4971620;28;20082;-77
2022/08/25 00:50:04;;;;;;;11.88;4.07;;;22.20;85.40;;;;;;4974291;28;20409;-78
2022/08/25 00:52:40;;;;;;;7.75;4.68;;;22.20;85.50;;;;;;4975492;28;20035;-77
2022/08/25 00:55:25;;;;;;;11.93;4.78;;;22.30;85.30;;;;;;4974077;28;20400;-79
2022/08/25 00:58:03;;;;;;;9.38;4.43;;;22.30;85.70;;;;;;4975211;28;20126;-77
2022/08/25 01:00:34;;;;;;;9.73;5.28;;;22.30;85.90;;;;;;4974992;28;20453;-78
2022/08/25 01:03:00;;;;;;;14.05;4.85;;;22.30;86.00;;;;;;4974804;28;20362;-78
2022/08/25 01:05:27;;;;;;;8.07;4.55;;;22.20;86.00;;;;;;4974740;28;20086;-78
2022/08/25 01:07:53;;;;;;;10.73;4.50;;;22.30;86.20;;;;;;4975452;28;20357;-79
2022/08/25 01:10:21;;;;;;;9.98;4.72;;;22.40;85.40;;;;;;4974650;28;20133;-78
2022/08/25 01:12:48;;;;;;;9.48;4.57;;;22.50;85.50;;;;;;4974897;28;20127;-77
2022/08/25 01:15:14;;;;;;;8.35;4.90;;;22.60;85.70;;;;;;4974844;28;20433;-77
2022/08/25 01:17:51;;;;;;;6.78;4.63;;;22.60;86.00;;;;;;4974872;28;20057;-79
2022/08/25 01:20:19;;;;;;;;;;;22.60;85.80;;;;;;4975028;28;20031;-79
2022/08/25 01:22:46;;;;;;;11.65;4.70;;;22.60;85.70;;;;;;4975150;28;19941;-78
2022/08/25 01:25:27;;;;;;;12.05;5.00;;;22.60;85.50;;;;;;4973662;28;20050;-78
2022/08/25 01:27:52;;;;;;;7.10;4.90;;;22.60;86.10;;;;;;4974565;28;20027;-78
2022/08/25 01:30:18;;;;;;;11.00;4.90;;;22.60;86.40;;;;;;4974407;28;20034;-79
2022/08/25 01:32:44;;;;;;;11.25;4.82;;;22.60;86.20;;;;;;4974393;28;20031;-79
2022/08/25 01:35:10;;;;;;;10.52;4.68;;;22.60;86.30;;;;;;4977336;28;20030;-79
2022/08/25 01:37:36;;;;;;;7.53;4.60;;;22.60;85.80;;;;;;4992445;28;20384;-79
2022/08/25 01:40:03;;;;;;;9.88;5.13;;;22.50;87.10;;;;;;4993474;28;20037;-79
2022/08/25 01:42:56;;;;;;;9.55;5.05;;;22.50;86.90;;;;;;4993523;28;20034;-79
2022/08/25 01:45:21;;;;;;;8.48;4.82;;;22.50;86.80;;;;;;4992565;28;20053;-78
2022/08/25 01:47:47;;;;;;;18.33;6.18;;;22.50;87.30;;;;;;4992446;28;20453;-78
2022/08/25 01:50:13;;;;;;;13.32;5.75;;;22.50;86.70;;;;;;4992910;28;20357;-78
2022/08/25 01:52:58;;;;;;;12.45;5.53;;;22.50;87.40;;;;;;4993558;28;20042;-77
2022/08/25 01:55:24;;;;;;;10.27;5.63;;;22.50;87.10;;;;;;4993411;28;20030;-76
2022/08/25 01:57:50;;;;;;;7.78;5.15;;;22.40;87.50;;;;;;4993411;28;20552;-77
2022/08/25 02:00:17;;;;;;;9.32;4.97;;;22.40;87.60;;;;;;4992682;28;20034;-76
2022/08/25 02:02:43;;;;;;;9.80;5.38;;;22.40;87.80;;;;;;4992876;28;20038;-78
2022/08/25 02:05:13;;;;;;;9.38;5.22;;;22.40;88.00;;;;;;4993942;28;20380;-79
2022/08/25 02:07:41;;;;;;;11.65;5.50;;;22.40;87.90;;;;;;4993429;28;20050;-79
2022/08/25 02:10:10;;;;;;;11.30;5.85;;;22.30;88.80;;;;;;4993137;28;20065;-78
2022/08/25 02:12:36;;;;;;;10.20;5.43;;;22.30;89.40;;;;;;4993285;28;20373;-76
2022/08/25 02:15:06;;;;;;;14.15;5.82;;;22.30;89.80;;;;;;4991917;28;20038;-79
2022/08/25 02:17:35;;;;;;;8.60;5.93;;;22.30;90.10;;;;;;4992845;28;20037;-79
2022/08/25 02:20:04;;;;;;;12.70;5.60;;;22.30;90.00;;;;;;4992284;28;20148;-78
2022/08/25 02:22:29;;;;;;;9.73;5.95;;;22.30;90.20;;;;;;4992439;28;20034;-77
2022/08/25 02:24:55;;;;;;;8.60;6.03;;;22.20;90.30;;;;;;4993184;28;20346;-78
2022/08/25 02:27:23;;;;;;;13.60;6.47;;;22.20;90.40;;;;;;4992988;28;20373;-78
2022/08/25 02:29:48;;;;;;;10.75;5.82;;;22.20;90.70;;;;;;4993029;28;20041;-78
2022/08/25 02:32:14;;;;;;;9.07;6.05;;;22.20;90.80;;;;;;4992030;28;20113;-77
2022/08/25 02:34:40;;;;;;;11.25;6.05;;;22.20;91.00;;;;;;4993289;28;20348;-78
2022/08/25 02:37:07;;;;;;;11.98;6.35;;;22.20;90.80;;;;;;4993010;28;20042;-78
2022/08/25 02:39:33;;;;;;;11.33;6.03;;;22.20;91.00;;;;;;4993304;28;20034;-77
2022/08/25 02:41:58;;;;;;;11.40;5.95;;;22.20;91.10;;;;;;4991964;28;20046;-78
2022/08/25 02:44:24;;;;;;;10.52;6.30;;;22.10;91.20;;;;;;4993053;28;20437;-78
2022/08/25 02:46:50;;;;;;;11.27;6.90;;;22.20;91.30;;;;;;4993344;28;20080;-80
2022/08/25 02:49:16;;;;;;;12.05;6.97;;;22.10;91.40;;;;;;4992642;28;20109;-78
2022/08/25 02:51:41;;;;;;;13.15;7.10;;;22.00;92.00;;;;;;4992939;28;20301;-77
2022/08/25 02:54:08;;;;;;;13.77;7.10;;;22.00;91.80;;;;;;4994742;28;20038;-78
2022/08/25 02:56:33;;;;;;;10.00;5.60;;;22.00;91.90;;;;;;4994350;28;20050;-78
2022/08/25 02:59:01;;;;;;;15.25;8.82;;;22.00;91.70;;;;;;4994372;28;20096;-78
2022/08/25 03:01:27;;;;;;;30.55;19.00;;;21.90;92.10;;;;;;4994059;28;20049;-78
2022/08/25 03:03:53;;;;;;;27.45;16.27;;;21.80;92.70;;;;;;4993873;28;20113;-79
2022/08/25 03:06:22;;;;;;;12.15;7.72;;;21.80;92.40;;;;;;4995795;28;20463;-76
2022/08/25 03:08:47;;;;;;;10.55;6.85;;;21.70;92.70;;;;;;4992905;28;20049;-78
2022/08/25 03:11:14;;;;;;;10.48;6.80;;;21.70;92.90;;;;;;4992940;28;20042;-77
2022/08/25 03:13:40;;;;;;;14.60;7.00;;;21.70;93.00;;;;;;4992963;28;20053;-77
2022/08/25 03:16:07;;;;;;;11.25;6.70;;;21.70;93.20;;;;;;4992844;28;20031;-79
2022/08/25 03:18:33;;;;;;;13.77;7.45;;;21.60;93.40;;;;;;4992554;28;20038;-78
2022/08/25 03:20:59;;;;;;;17.13;7.28;;;21.60;93.60;;;;;;4993917;28;20042;-79
2022/08/25 03:23:25;;;;;;;12.68;6.78;;;21.60;93.50;;;;;;4995028;28;20038;-81
2022/08/25 03:28:38;;;;;;;12.27;7.30;;;21.60;93.40;;;;;;4972728;28;20118;-78
2022/08/25 03:31:04;;;;;;;12.93;8.30;;;21.60;93.60;;;;;;4972616;28;20113;-79
2022/08/25 03:33:30;;;;;;;9.30;6.88;;;21.60;93.60;;;;;;4972390;28;20047;-78
2022/08/25 03:35:57;;;;;;;17.85;7.22;;;21.50;94.00;;;;;;4972055;28;20046;-78
2022/08/25 03:38:24;;;;;;;12.35;6.82;;;21.40;94.40;;;;;;4972308;28;20109;-79
2022/08/25 03:40:50;;;;;;;13.32;7.50;;;21.40;94.20;;;;;;4972789;28;20050;-78
2022/08/25 03:43:16;;;;;;;16.33;7.30;;;21.50;94.20;;;;;;4972518;28;20038;-80
2022/08/25 03:45:43;;;;;;;15.90;7.22;;;21.60;94.10;;;;;;4971391;28;20147;-80
2022/08/25 03:48:09;;;;;;;12.80;7.53;;;21.60;94.30;;;;;;4972527;28;20034;-80
2022/08/25 03:50:35;;;;;;;18.73;8.60;;;21.40;94.70;;;;;;4972200;28;20101;-78
2022/08/25 03:53:02;;;;;;;15.40;8.13;;;21.30;94.80;;;;;;4972914;28;20069;-77
2022/08/25 03:55:28;;;;;;;17.27;7.55;;;21.40;95.00;;;;;;4972182;28;20480;-79
2022/08/25 03:57:54;;;;;;;14.65;6.97;;;21.40;94.80;;;;;;4971881;28;20035;-79
2022/08/25 04:00:22;;;;;;;11.27;7.30;;;21.40;95.10;;;;;;4971090;28;20190;-77
2022/08/25 04:02:47;;;;;;;11.63;7.28;;;21.30;95.20;;;;;;4970906;28;20031;-78
2022/08/25 04:05:13;;;;;;;14.05;7.55;;;21.30;95.10;;;;;;4972095;28;20368;-78
2022/08/25 04:07:39;;;;;;;12.35;7.72;;;21.20;95.10;;;;;;4970739;28;20069;-78
2022/08/25 04:10:06;;;;;;;17.38;8.23;;;21.20;95.10;;;;;;4971633;28;20138;-79
2022/08/25 04:12:33;;;;;;;18.63;7.65;;;21.20;95.20;;;;;;4972108;28;20034;-79
2022/08/25 04:14:59;;;;;;;16.85;7.75;;;21.10;95.30;;;;;;4971701;28;20031;-79
2022/08/25 04:17:24;;;;;;;15.60;7.55;;;21.10;95.00;;;;;;4971736;28;20106;-78
2022/08/25 04:19:50;;;;;;;14.32;7.88;;;21.10;95.30;;;;;;4972131;28;20061;-78
2022/08/25 04:22:16;;;;;;;17.45;8.38;;;21.10;95.40;;;;;;4971769;28;20127;-80
2022/08/25 04:24:42;;;;;;;12.75;7.32;;;21.10;95.30;;;;;;4973561;28;20504;-79
2022/08/25 04:27:07;;;;;;;16.13;8.13;;;21.10;95.40;;;;;;4975707;28;20038;-80
2022/08/25 04:29:33;;;;;;;13.98;7.47;;;21.00;95.80;;;;;;4975615;28;20097;-79
2022/08/25 04:31:59;;;;;;;15.38;7.60;;;21.00;95.60;;;;;;4975931;28;20054;-79
2022/08/25 04:34:26;;;;;;;13.65;8.20;;;21.00;95.80;;;;;;4974272;28;20102;-79
2022/08/25 04:36:52;;;;;;;12.75;8.10;;;21.00;95.90;;;;;;4974320;28;20039;-78
2022/08/25 04:39:19;;;;;;;17.27;8.57;;;20.90;96.00;;;;;;4975417;28;20436;-79
2022/08/25 04:41:46;;;;;;;21.10;8.02;;;20.90;96.10;;;;;;4975059;28;20039;-78
2022/08/25 04:44:12;;;;;;;16.33;8.68;;;20.80;96.60;;;;;;4975539;28;20035;-78
2022/08/25 04:46:37;;;;;;;17.00;8.50;;;20.90;96.40;;;;;;4975073;28;20480;-78
2022/08/25 04:49:03;;;;;;;14.27;8.80;;;21.00;96.40;;;;;;4974914;28;20034;-79
2022/08/25 04:51:34;;;;;;;24.38;9.68;;;21.00;96.40;;;;;;4974939;28;20031;-79
2022/08/25 04:54:04;;;;;;;15.85;8.75;;;21.10;96.40;;;;;;4974903;28;20054;-78
2022/08/25 04:56:32;;;;;;;16.40;9.07;;;21.10;96.30;;;;;;4974079;28;20027;-79
2022/08/25 04:59:02;;;;;;;18.55;8.77;;;21.10;96.50;;;;;;4975689;28;20023;-77
2022/08/25 05:01:29;;;;;;;23.75;9.63;;;21.10;96.60;;;;;;4977143;28;20027;-80
2022/08/25 05:03:58;;;;;;;19.77;9.40;;;21.10;96.70;;;;;;4974907;28;20037;-79
2022/08/25 05:06:24;;;;;;;17.10;8.63;;;21.10;96.90;;;;;;4974878;28;20031;-80
2022/08/25 05:08:51;;;;;;;17.80;8.93;;;21.20;96.90;;;;;;4973926;28;20382;-77
2022/08/25 05:11:17;;;;;;;16.52;9.98;;;21.20;96.80;;;;;;4974620;28;20047;-79
2022/08/25 05:13:48;;;;;;;17.00;10.27;;;21.20;97.10;;;;;;4975220;28;20011;-79
2022/08/25 05:16:15;;;;;;;15.52;9.25;;;21.20;97.10;;;;;;4974589;28;20031;-80
2022/08/25 05:18:41;;;;;;;20.85;9.65;;;21.20;97.30;;;;;;4973451;28;20041;-79
2022/08/25 05:21:11;;;;;;;22.98;10.63;;;21.20;97.30;;;;;;4974342;28;20062;-79
2022/08/25 05:23:37;;;;;;;16.83;10.57;;;21.30;97.50;;;;;;4974496;28;20424;-80
2022/08/25 05:26:16;;;;;;;29.52;14.45;;;21.30;97.60;;;;;;4975142;28;20089;-79
2022/08/25 05:28:42;;;;;;;24.58;12.05;;;21.30;97.60;;;;;;4974460;28;20057;-80
2022/08/25 05:31:10;;;;;;;22.70;12.95;;;21.30;97.70;;;;;;4974332;28;20035;-78
2022/08/25 05:33:37;;;;;;;20.30;11.32;;;21.30;97.70;;;;;;4974452;28;20240;-79
2022/08/25 05:36:08;;;;;;;28.83;17.15;;;21.40;97.70;;;;;;4974328;28;20056;-78
2022/08/25 05:38:35;;;;;;;24.13;15.48;;;21.40;97.70;;;;;;4974096;28;20051;-79
2022/08/25 05:41:09;;;;;;;25.20;11.43;;;21.40;97.80;;;;;;4974547;28;20516;-77
2022/08/25 05:43:36;;;;;;;22.80;11.45;;;21.50;97.80;;;;;;4974713;28;20062;-80
2022/08/25 05:46:05;;;;;;;20.80;11.47;;;21.50;97.70;;;;;;4974703;28;20055;-81
2022/08/25 05:48:31;;;;;;;22.83;11.38;;;21.50;97.60;;;;;;4973109;28;20279;-79
2022/08/25 05:50:59;;;;;;;21.77;10.75;;;21.50;97.80;;;;;;4974345;28;20497;-76
2022/08/25 05:53:27;;;;;;;31.88;12.32;;;21.60;97.90;;;;;;4973199;28;20418;-77
2022/08/25 05:55:56;;;;;;;19.38;10.10;;;21.50;97.90;;;;;;4974260;28;20516;-79
2022/08/25 05:58:23;;;;;;;25.17;11.13;;;21.60;97.70;;;;;;4974113;28;20039;-76
2022/08/25 06:00:50;;;;;;;24.55;11.80;;;21.60;98.10;;;;;;4973734;28;20113;-78
2022/08/25 06:03:16;;;;;;;22.73;11.57;;;21.60;98.00;;;;;;4973804;28;20037;-80
2022/08/25 06:05:41;;;;;;;28.35;13.13;;;21.70;97.90;;;;;;4973817;28;20065;-81
2022/08/25 06:08:07;;;;;;;26.88;14.15;;;21.60;98.20;;;;;;4974725;28;20046;-78
2022/08/25 06:10:36;;;;;;;30.73;15.18;;;21.70;98.00;;;;;;4973375;28;20435;-78
2022/08/25 06:13:03;;;;;;;23.92;15.20;;;21.80;97.60;;;;;;4973551;28;20031;-80
2022/08/25 06:15:29;;;;;;;22.45;12.05;;;21.70;98.20;;;;;;4973618;28;20065;-81
2022/08/25 06:17:57;;;;;;;24.83;12.68;;;21.70;98.20;;;;;;4972919;28;20027;-83
2022/08/25 06:20:26;;;;;;;30.30;14.55;;;21.80;97.90;;;;;;4973480;28;20086;-82
2022/08/25 06:22:52;;;;;;;41.15;13.75;;;21.80;97.70;;;;;;4975055;28;20077;-80
2022/08/25 06:25:21;;;;;;;23.85;13.05;;;21.80;98.40;;;;;;4973717;28;20070;-78
2022/08/25 06:27:47;;;;;;;26.30;11.68;;;21.80;98.10;;;;;;4973535;28;20381;-79
2022/08/25 06:30:15;;;;;;;31.23;11.52;;;21.80;97.90;;;;;;4973271;28;20441;-77
2022/08/25 06:32:43;;;;;;;26.50;12.68;;;21.80;97.90;;;;;;4973228;28;20053;-80
2022/08/25 06:35:16;;;;;;;22.15;14.00;;;21.80;98.30;;;;;;4972530;28;20022;-78
2022/08/25 06:37:42;;;;;;;27.70;14.13;;;21.90;98.70;;;;;;4973955;28;20027;-80
2022/08/25 06:40:09;;;;;;;27.08;13.50;;;21.90;98.60;;;;;;4973002;28;20241;-78
2022/08/25 06:42:36;;;;;;;23.85;14.02;;;21.90;98.80;;;;;;4973308;28;20041;-77
2022/08/25 06:45:03;;;;;;;23.70;13.27;;;21.90;98.90;;;;;;4973238;28;20523;-79
2022/08/25 06:47:29;;;;;;;25.15;15.20;;;22.00;98.70;;;;;;4971296;28;20023;-82
2022/08/25 06:49:54;;;;;;;27.25;13.80;;;22.00;98.70;;;;;;4988898;28;20081;-81
2022/08/25 06:52:20;;;;;;;28.33;13.80;;;22.10;98.60;;;;;;4972748;28;20043;-79
2022/08/25 06:54:47;;;;;;;30.25;13.00;;;22.20;98.10;;;;;;4972922;28;20561;-79
2022/08/25 06:57:12;;;;;;;39.95;14.65;;;22.20;97.90;;;;;;4972782;28;20069;-81
2022/08/25 06:59:38;;;;;;;25.73;13.90;;;22.30;98.40;;;;;;4972737;28;20453;-80
2022/08/25 07:02:05;;;;;;;20.92;13.32;;;22.30;98.70;;;;;;4972953;28;20038;-79
2022/08/25 07:04:33;;;;;;;23.98;13.20;;;22.30;98.40;;;;;;4971424;28;20031;-75
2022/08/25 07:06:59;;;;;;;21.92;12.98;;;22.40;98.30;;;;;;4972291;28;20246;-75
2022/08/25 07:09:24;;;;;;;30.17;13.50;;;22.40;98.20;;;;;;4972304;28;20063;-79
2022/08/25 07:11:51;;;;;;;21.00;14.25;;;22.50;98.30;;;;;;4972253;28;20549;-78
2022/08/25 07:14:17;;;;;;;17.65;12.63;;;22.50;98.10;;;;;;4972457;28;20023;-77
2022/08/25 07:16:44;;;;;;;24.55;13.20;;;22.60;98.10;;;;;;4972515;28;20035;-79
2022/08/25 07:19:10;;;;;;;17.40;12.77;;;22.70;98.20;;;;;;4972256;28;20460;-79
2022/08/25 07:21:40;;;;;;;26.58;13.85;;;22.70;98.00;;;;;;4972318;28;20034;-80
2022/08/25 07:24:08;;;;;;;26.08;13.07;;;22.80;98.20;;;;;;4971891;28;20339;-80
2022/08/25 07:26:35;;;;;;;29.38;14.63;;;22.80;98.20;;;;;;4971105;28;20045;-79
2022/08/25 07:29:27;;;;;;;34.03;14.90;;;22.90;98.10;;;;;;4972427;28;20015;-78
2022/08/25 07:31:53;;;;;;;22.77;14.18;;;23.00;98.20;;;;;;4970825;28;20034;-79
2022/08/25 07:37:04;;;;;;;23.42;13.93;;;23.10;98.10;;;;;;4972181;28;20057;-80
2022/08/25 07:39:31;;;;;;;27.20;12.40;;;23.10;97.70;;;;;;4971654;28;20035;-80
2022/08/25 07:41:59;;;;;;;26.92;15.77;;;23.20;97.60;;;;;;4971678;28;20500;-80
2022/08/25 07:44:26;;;;;;;26.08;13.77;;;23.30;97.90;;;;;;4970714;28;20031;-82
2022/08/25 07:46:52;;;;;;;26.67;11.90;;;23.40;97.70;;;;;;4972130;28;20458;-80
2022/08/25 07:49:19;;;;;;;17.60;9.98;;;23.40;97.60;;;;;;4971576;28;20039;-79
2022/08/25 07:51:46;;;;;;;26.15;12.45;;;23.50;97.40;;;;;;4971715;28;20035;-80
2022/08/25 07:54:11;;;;;;;21.23;10.55;;;23.60;97.60;;;;;;4986789;28;20034;-80
2022/08/25 07:56:38;;;;;;;24.65;11.57;;;23.70;97.40;;;;;;4970638;28;20130;-80
2022/08/25 07:59:03;;;;;;;33.05;11.98;;;23.80;97.30;;;;;;4972949;28;20022;-82
2022/08/25 08:01:29;;;;;;;26.00;11.57;;;23.80;97.40;;;;;;4975825;28;20359;-82
2022/08/25 08:03:55;;;;;;;26.33;10.40;;;23.90;97.40;;;;;;4975741;28;20035;-77
2022/08/25 08:06:23;;;;;;;19.17;10.57;;;24.00;97.40;;;;;;4975967;28;20039;-79
2022/08/25 08:08:49;;;;;;;;;;;24.20;97.20;;;;;;4974761;28;20488;-85
2022/08/25 08:11:27;;;;;;;16.00;8.85;;;24.40;97.10;;;;;;4975809;28;20090;-80
2022/08/25 08:13:55;;;;;;;24.23;12.07;;;24.60;96.40;;;;;;4976102;28;20449;-79
2022/08/25 08:16:23;;;;;;;20.00;8.90;;;24.70;96.30;;;;;;4975000;28;20031;-73
2022/08/25 08:18:49;;;;;;;23.40;9.45;;;25.00;96.10;;;;;;4976215;28;20122;-87
2022/08/25 08:21:17;;;;;;;18.95;8.98;;;25.20;96.20;;;;;;4976383;28;20462;-76
2022/08/25 08:23:43;;;;;;;22.33;9.65;;;25.60;95.80;;;;;;4975351;28;20035;-81
2022/08/25 08:26:09;;;;;;;17.80;9.45;;;25.90;95.20;;;;;;4975741;28;20019;-81
2022/08/25 08:28:35;;;;;;;22.50;9.85;;;26.30;94.90;;;;;;4975634;28;20069;-82
2022/08/25 08:31:03;;;;;;;14.57;8.43;;;26.70;95.00;;;;;;4975937;28;20118;-83
2022/08/25 08:33:29;;;;;;;16.77;9.98;;;27.30;94.30;;;;;;4975254;28;20027;-80
2022/08/25 08:36:01;;;;;;;16.90;9.38;;;27.70;93.20;;;;;;4975123;28;20042;-83
2022/08/25 08:38:27;;;;;;;17.25;9.35;;;28.20;92.70;;;;;;4975013;28;20424;-77
2022/08/25 08:44:11;;;;;;;19.10;8.85;;;29.40;91.30;;;;;;4975257;28;20101;-79
2022/08/25 08:46:58;;;;;;;22.33;9.93;;;30.30;90.30;;;;;;4975214;28;20031;-79
2022/08/25 08:49:33;;;;;;;17.23;9.30;;;31.10;87.50;;;;;;4976434;28;20119;-84
2022/08/25 08:52:01;;;;;;;40.75;20.48;;;31.90;85.80;;;;;;4978754;28;20034;-83
2022/08/25 08:54:34;;;;;;;22.23;9.82;;;32.60;83.60;;;;;;4976925;28;20071;-82
2022/08/25 08:57:24;;;;;;;18.90;7.43;;;33.20;80.30;;;;;;4976296;28;20129;-78
2022/08/25 09:00:04;;;;;;;17.23;9.07;;;33.40;74.40;;;;;;4977754;28;20042;-84
2022/08/25 09:02:52;;;;;;;14.52;7.43;;;34.00;73.50;;;;;;4980310;28;20031;-90
2022/08/25 09:05:21;;;;;;;18.48;7.47;;;34.20;75.10;;;;;;4974965;28;20038;-78
2022/08/25 09:07:52;;;;;;;17.80;7.80;;;34.80;69.20;;;;;;4975030;28;20116;-80
2022/08/25 09:10:19;;;;;;;27.70;8.00;;;35.20;68.20;;;;;;4974407;28;20050;-81
2022/08/25 09:12:53;;;;;;;23.75;7.63;;;34.90;68.20;;;;;;4974265;28;20365;-79
2022/08/25 09:16:53;;;;;;;15.60;6.90;;;35.70;69.20;;;;;;4974418;28;20078;-78
2022/08/25 09:18:36;;;;;;;14.93;6.55;;;36.20;65.10;;;;;;4974666;28;20050;-83
2022/08/25 09:21:10;;;;;;;12.80;7.30;;;36.20;65.00;;;;;;4989776;28;20417;-78
2022/08/25 09:23:53;;;;;;;14.68;7.38;;;35.40;65.40;;;;;;4974835;28;20476;-83
2022/08/25 09:26:47;;;;;;;12.32;7.57;;;35.40;65.70;;;;;;4975362;28;20034;-79
2022/08/25 09:29:17;;;;;;;14.73;6.88;;;36.10;63.80;;;;;;4974577;28;20035;-81
2022/08/25 09:31:43;;;;;;;10.48;6.60;;;35.90;62.50;;;;;;4974286;28;20042;-80
2022/08/25 09:34:33;;;;;;;15.05;7.38;;;35.20;63.80;;;;;;4974434;28;20042;-80
2022/08/25 09:37:00;;;;;;;18.23;7.38;;;35.20;64.80;;;;;;4971424;28;20270;-79
2022/08/25 09:39:25;;;;;;;11.95;6.47;;;35.20;64.70;;;;;;4975052;28;20050;-81
2022/08/25 09:41:55;;;;;;;16.70;6.78;;;35.00;63.30;;;;;;4973792;28;20039;-80
2022/08/25 09:44:29;;;;;;;16.40;7.22;;;34.60;63.70;;;;;;4973727;28;20027;-83
2022/08/25 09:47:14;;;;;;;18.25;7.00;;;34.80;63.40;;;;;;4975177;28;20327;-78
2022/08/25 09:49:46;;;;;;;15.50;6.78;;;35.20;63.00;;;;;;4974163;28;20175;-82
2022/08/25 09:52:36;;;;;;;14.23;6.03;;;35.20;63.60;;;;;;4973068;28;20031;-80
2022/08/25 09:55:05;;;;;;;11.95;6.22;;;35.30;61.30;;;;;;4974278;28;20118;-79
2022/08/25 09:57:42;;;;;;;13.50;6.80;;;35.20;61.40;;;;;;4988919;28;20039;-81
2022/08/25 10:00:32;;;;;;;11.93;6.45;;;34.80;62.50;;;;;;4973865;28;20434;-82
2022/08/25 10:03:20;;;;;;;14.45;6.68;;;35.40;61.50;;;;;;4973784;28;20035;-80
2022/08/25 10:06:03;;;;;;;8.70;6.40;;;35.80;59.60;;;;;;4973566;28;20046;-81
2022/08/25 10:08:43;;;;;;;23.27;14.55;;;35.60;59.70;;;;;;4974124;28;20030;-79
2022/08/25 10:11:13;;;;;;;14.48;7.93;;;35.40;59.60;;;;;;4974670;28;20069;-84
2022/08/25 10:13:48;;;;;;;11.38;6.93;;;34.70;60.10;;;;;;4974092;28;20177;-82
2022/08/25 10:16:25;;;;;;;21.02;6.10;;;34.90;60.90;;;;;;4973787;28;20089;-90
2022/08/25 10:19:05;;;;;;;17.10;6.65;;;35.20;60.90;;;;;;4974239;28;20050;-83
2022/08/25 10:21:32;;;;;;;11.70;6.05;;;35.70;59.60;;;;;;4973648;28;20042;-85
2022/08/25 10:24:00;;;;;;;21.65;6.25;;;35.40;59.00;;;;;;4973293;28;20045;-83
2022/08/25 10:26:51;;;;;;;10.02;6.13;;;35.40;59.90;;;;;;4974061;28;20449;-85
2022/08/25 10:29:35;;;;;;;8.25;5.97;;;35.70;58.60;;;;;;4972586;28;20030;-76
2022/08/25 10:32:34;;;;;;;12.30;6.45;;;35.50;59.00;;;;;;4974765;28;20364;-91
2022/08/25 10:35:10;;;;;;;13.23;6.65;;;35.10;58.10;;;;;;4970590;28;20050;-87
2022/08/25 10:37:51;;;;;;;26.97;6.80;;;35.60;58.10;;;;;;4973023;28;20043;-75
2022/08/25 10:40:30;;;;;;;9.77;5.93;;;35.20;58.00;;;;;;4988214;28;20263;-80
2022/08/25 10:43:09;;;;;;;16.17;6.78;;;34.70;59.70;;;;;;4973074;28;20035;-78
2022/08/25 10:45:46;;;;;;;26.63;7.85;;;34.40;60.50;;;;;;4972019;28;20097;-82
2022/08/25 10:48:30;;;;;;;;;;;34.30;60.80;;;;;;4989260;28;20062;-84
2022/08/25 10:51:08;;;;;;;12.77;6.22;;;34.20;60.80;;;;;;4992978;28;19923;-81
2022/08/25 10:53:41;;;;;;;15.85;7.43;;;34.10;61.30;;;;;;4992821;28;20109;-81
2022/08/25 10:56:26;;;;;;;17.80;7.32;;;34.00;61.20;;;;;;4992835;28;20037;-81
2022/08/25 10:59:06;;;;;;;18.50;6.97;;;33.80;61.50;;;;;;4991564;28;20038;-81
2022/08/25 11:01:56;;;;;;;24.92;7.53;;;33.80;61.80;;;;;;4992596;28;20022;-80
2022/08/25 11:04:36;;;;;;;18.52;7.25;;;33.70;62.30;;;;;;4992584;28;20476;-81
2022/08/25 11:07:28;;;;;;;13.35;7.80;;;33.70;61.80;;;;;;4993144;28;20034;-81
2022/08/25 11:10:00;;;;;;;15.98;7.93;;;33.40;62.00;;;;;;4993152;28;20034;-80
2022/08/25 11:12:33;;;;;;;14.27;6.88;;;33.40;62.60;;;;;;4992906;28;20109;-74
2022/08/25 11:15:05;;;;;;;11.88;7.43;;;33.40;62.80;;;;;;4991764;28;20451;-75
2022/08/25 11:17:59;;;;;;;15.75;7.15;;;33.30;63.00;;;;;;4992198;28;20411;-79
2022/08/25 11:20:35;;;;;;;14.40;7.22;;;33.10;63.10;;;;;;4993715;28;20033;-79
2022/08/25 11:23:12;;;;;;;16.47;7.50;;;33.00;63.60;;;;;;4993884;28;20018;-82
2022/08/25 11:25:46;;;;;;;17.58;7.05;;;32.50;64.20;;;;;;4993065;28;20038;-77
2022/08/25 11:28:25;;;;;;;17.55;8.57;;;32.40;64.80;;;;;;4992091;28;20377;-78
2022/08/25 11:30:51;;;;;;;20.40;6.88;;;32.50;64.50;;;;;;4992696;28;20042;-85
2022/08/25 11:33:18;;;;;;;18.00;7.60;;;32.30;64.60;;;;;;4992824;28;20108;-77
2022/08/25 11:35:59;;;;;;;13.20;7.33;;;32.20;65.10;;;;;;4991703;28;20034;-78
2022/08/25 11:38:46;;;;;;;17.83;7.57;;;32.00;65.70;;;;;;4991713;28;20436;-78
2022/08/25 11:41:28;;;;;;;16.23;11.23;;;31.80;66.60;;;;;;4992416;28;20037;-79
2022/08/25 11:44:17;;;;;;;19.45;7.18;;;31.80;66.60;;;;;;4991624;28;20134;-78
2022/08/25 11:47:03;;;;;;;16.65;8.20;;;31.60;66.90;;;;;;4991406;28;20038;-81
2022/08/25 11:49:58;;;;;;;14.18;6.75;;;31.50;67.50;;;;;;4990574;28;20022;-77
2022/08/25 11:52:33;;;;;;;12.35;7.28;;;31.40;67.90;;;;;;4991567;28;20027;-76
2022/08/25 11:55:22;;;;;;;11.40;7.00;;;31.20;67.70;;;;;;4991600;28;20092;-79
2022/08/25 11:57:50;;;;;;;15.07;11.05;;;31.20;67.90;;;;;;4991643;28;20034;-75
2022/08/25 12:00:38;;;;;;;17.20;9.48;;;31.20;68.00;;;;;;4992237;28;20089;-84
2022/08/25 12:03:35;;;;;;;19.95;7.20;;;31.00;68.10;;;;;;4991984;28;20403;-81
2022/08/25 12:06:30;;;;;;;16.05;6.40;;;31.10;68.30;;;;;;4990589;28;20108;-80
2022/08/25 12:08:58;;;;;;;15.05;6.05;;;31.00;68.30;;;;;;4992009;28;20109;-82
2022/08/25 12:11:43;;;;;;;14.30;6.47;;;30.90;67.90;;;;;;4991963;28;20105;-82
2022/08/25 12:14:20;;;;;;;13.18;6.63;;;30.80;68.10;;;;;;4991185;28;20397;-81
2022/08/25 12:16:55;;;;;;;10.07;6.15;;;30.80;68.90;;;;;;4991709;28;20047;-73
2022/08/25 12:19:29;;;;;;;10.65;6.97;;;30.70;69.10;;;;;;4991651;28;20353;-82
2022/08/25 12:22:21;;;;;;;13.70;6.13;;;30.80;68.70;;;;;;4991687;28;20061;-79
2022/08/25 12:24:56;;;;;;;11.93;6.32;;;30.90;68.40;;;;;;4990805;28;20039;-82
2022/08/25 12:27:42;;;;;;;14.30;6.50;;;30.80;68.30;;;;;;4991883;28;20034;-83
2022/08/25 12:30:29;;;;;;;19.25;7.18;;;30.60;68.70;;;;;;4989874;28;20118;-80
2022/08/25 12:32:55;;;;;;;14.27;6.65;;;30.40;69.30;;;;;;4991850;28;20421;-73
2022/08/25 12:35:55;;;;;;;17.58;7.10;;;30.40;69.20;;;;;;4991341;28;20141;-74
2022/08/25 12:38:27;;;;;;;21.58;7.28;;;30.40;68.70;;;;;;4991126;28;20019;-74
2022/08/25 12:41:07;;;;;;;16.10;6.60;;;30.30;69.80;;;;;;4991500;28;20439;-80
2022/08/25 12:43:39;;;;;;;13.82;6.68;;;30.40;70.20;;;;;;4991039;28;20062;-85
2022/08/25 12:46:26;;;;;;;15.77;6.38;;;30.40;70.20;;;;;;4991935;28;20045;-78
2022/08/25 12:49:15;;;;;;;12.93;6.65;;;30.50;71.20;;;;;;4995078;28;20034;-75
2022/08/25 12:51:55;;;;;;;17.20;6.45;;;30.50;71.20;;;;;;4994399;28;20445;-76
2022/08/25 12:54:46;;;;;;;14.18;6.72;;;30.40;70.90;;;;;;4994734;28;20045;-81
2022/08/25 12:57:39;;;;;;;15.18;7.07;;;30.50;71.20;;;;;;4993638;28;20559;-81
2022/08/25 13:00:22;;;;;;;10.65;6.32;;;30.40;72.20;;;;;;4992919;28;20045;-75
2022/08/25 13:03:08;;;;;;;9.15;6.35;;;30.40;71.00;;;;;;4994729;28;20365;-73
2022/08/25 13:05:53;;;;;;;13.35;5.78;;;30.40;70.60;;;;;;4994630;28;20126;-76